sensor_id;sensor_type;location;lat;lon;timestamp;pressure;altitude;pressure_sealevel;temperature;humidity
20889;BME280;10604;51.976;7.594;2023-12-28T00:00:30;100156.97;;;20.51;41.72
20889;BME280;10604;51.976;7.594;2023-12-28T00:02:56;100150.13;;;20.47;42.66
20889;BME280;10604;51.976;7.594;2023-12-28T00:05:21;100164.25;;;20.05;43.21
20889;BME280;10604;51.976;7.594;2023-12-28T00:07:46;100161.03;;;19.77;44.04
20889;BME280;10604;51.976;7.594;2023-12-28T00:10:11;100172.56;;;20.35;43.27
20889;BME280;10604;51.976;7.594;2023-12-28T00:12:37;100177.88;;;20.13;43.43
20889;BME280;10604;51.976;7.594;2023-12-28T00:15:02;100168.34;;;20.87;42.63
20889;BME280;10604;51.976;7.594;2023-12-28T00:17:27;100173.25;;;19.23;44.01
20889;BME280;10604;51.976;7.594;2023-12-28T00:19:52;100181.31;;;20.82;42.77
20889;BME280;10604;51.976;7.594;2023-12-28T00:22:18;100178.41;;;20.51;42.78
20889;BME280;10604;51.976;7.594;2023-12-28T00:24:43;100172.22;;;19.36;45.15
20889;BME280;10604;51.976;7.594;2023-12-28T00:27:08;100171.06;;;20.53;43.78
20889;BME280;10604;51.976;7.594;2023-12-28T00:29:33;100173.72;;;20.87;42.96
20889;BME280;10604;51.976;7.594;2023-12-28T00:31:59;100167.91;;;20.26;43.33
20889;BME280;10604;51.976;7.594;2023-12-28T00:34:25;100146.97;;;20.64;42.76
20889;BME280;10604;51.976;7.594;2023-12-28T00:36:50;100161.03;;;19.77;44.87
20889;BME280;10604;51.976;7.594;2023-12-28T00:39:15;100139.84;;;20.86;42.73
20889;BME280;10604;51.976;7.594;2023-12-28T00:41:40;100162.97;;;19.75;45.03
20889;BME280;10604;51.976;7.594;2023-12-28T00:44:06;100147.97;;;19.62;44.72
20889;BME280;10604;51.976;7.594;2023-12-28T00:46:34;100137.63;;;20.91;42.74
20889;BME280;10604;51.976;7.594;2023-12-28T00:48:59;100141.38;;;20.23;43.69
20889;BME280;10604;51.976;7.594;2023-12-28T00:51:24;100158.72;;;20.95;42.99
20889;BME280;10604;51.976;7.594;2023-12-28T00:53:49;100146.00;;;20.54;43.42
20889;BME280;10604;51.976;7.594;2023-12-28T00:56:15;100147.72;;;20.33;43.76
20889;BME280;10604;51.976;7.594;2023-12-28T00:58:41;100177.44;;;20.52;43.68
20889;BME280;10604;51.976;7.594;2023-12-28T01:01:08;100160.00;;;21.23;41.79
20889;BME280;10604;51.976;7.594;2023-12-28T01:03:33;100175.69;;;19.96;43.95
20889;BME280;10604;51.976;7.594;2023-12-28T01:05:58;100178.88;;;20.23;44.40
20889;BME280;10604;51.976;7.594;2023-12-28T01:08:24;100178.78;;;20.58;42.90
20889;BME280;10604;51.976;7.594;2023-12-28T01:10:49;100193.63;;;21.59;41.80
20889;BME280;10604;51.976;7.594;2023-12-28T01:13:14;100177.53;;;21.27;42.37
20889;BME280;10604;51.976;7.594;2023-12-28T01:15:40;100198.19;;;19.93;44.30
20889;BME280;10604;51.976;7.594;2023-12-28T01:18:05;100189.00;;;21.29;42.48
20889;BME280;10604;51.976;7.594;2023-12-28T01:20:30;100184.75;;;19.60;44.07
20889;BME280;10604;51.976;7.594;2023-12-28T01:22:56;100185.94;;;20.24;44.07
20889;BME280;10604;51.976;7.594;2023-12-28T01:25:21;100196.28;;;20.17;43.64
20889;BME280;10604;51.976;7.594;2023-12-28T01:27:46;100199.53;;;19.87;44.77
20889;BME280;10604;51.976;7.594;2023-12-28T01:30:11;100201.13;;;20.90;42.91
20889;BME280;10604;51.976;7.594;2023-12-28T01:32:37;100189.38;;;20.48;43.68
20889;BME280;10604;51.976;7.594;2023-12-28T01:35:02;100183.94;;;20.93;42.84
20889;BME280;10604;51.976;7.594;2023-12-28T01:37:27;100205.41;;;20.26;43.36
20889;BME280;10604;51.976;7.594;2023-12-28T01:39:55;100205.63;;;20.90;43.43
20889;BME280;10604;51.976;7.594;2023-12-28T01:42:20;100216.84;;;20.84;43.13
20889;BME280;10604;51.976;7.594;2023-12-28T01:44:46;100216.41;;;20.79;43.60
20889;BME280;10604;51.976;7.594;2023-12-28T01:47:11;100227.91;;;21.56;41.83
20889;BME280;10604;51.976;7.594;2023-12-28T01:49:37;100222.59;;;21.44;41.47
20889;BME280;10604;51.976;7.594;2023-12-28T01:52:02;100231.44;;;20.13;43.67
20889;BME280;10604;51.976;7.594;2023-12-28T01:54:27;100226.88;;;21.68;41.49
20889;BME280;10604;51.976;7.594;2023-12-28T01:56:53;100229.94;;;19.86;44.26
20889;BME280;10604;51.976;7.594;2023-12-28T01:59:19;100219.44;;;19.83;44.51
20889;BME280;10604;51.976;7.594;2023-12-28T02:01:44;100220.28;;;20.86;42.56
20889;BME280;10604;51.976;7.594;2023-12-28T02:04:10;100218.56;;;21.71;40.98
20889;BME280;10604;51.976;7.594;2023-12-28T02:06:35;100238.31;;;20.61;42.78
20889;BME280;10604;51.976;7.594;2023-12-28T02:09:01;100233.13;;;21.36;42.19
20889;BME280;10604;51.976;7.594;2023-12-28T02:11:26;100237.53;;;21.15;41.81
20889;BME280;10604;51.976;7.594;2023-12-28T02:13:51;100238.06;;;20.87;42.75
20889;BME280;10604;51.976;7.594;2023-12-28T02:16:21;100230.72;;;21.54;41.38
20889;BME280;10604;51.976;7.594;2023-12-28T02:18:50;100228.50;;;21.27;41.84
20889;BME280;10604;51.976;7.594;2023-12-28T02:21:19;100226.19;;;22.07;40.35
20889;BME280;10604;51.976;7.594;2023-12-28T02:23:48;100226.63;;;21.39;41.60
20889;BME280;10604;51.976;7.594;2023-12-28T02:26:14;100227.88;;;21.67;41.43
20889;BME280;10604;51.976;7.594;2023-12-28T02:28:39;100234.84;;;21.26;42.17
20889;BME280;10604;51.976;7.594;2023-12-28T02:31:04;100233.16;;;21.78;41.00
20889;BME280;10604;51.976;7.594;2023-12-28T02:33:35;100228.75;;;21.88;40.91
20889;BME280;10604;51.976;7.594;2023-12-28T02:36:07;100239.28;;;20.94;42.17
20889;BME280;10604;51.976;7.594;2023-12-28T02:38:35;100235.63;;;21.17;42.17
20889;BME280;10604;51.976;7.594;2023-12-28T02:41:01;100241.91;;;21.27;41.58
20889;BME280;10604;51.976;7.594;2023-12-28T02:43:27;100243.28;;;21.54;41.35
20889;BME280;10604;51.976;7.594;2023-12-28T02:45:53;100245.09;;;21.21;41.94
20889;BME280;10604;51.976;7.594;2023-12-28T02:48:18;100242.47;;;20.77;42.50
20889;BME280;10604;51.976;7.594;2023-12-28T02:50:43;100237.06;;;21.21;41.67
20889;BME280;10604;51.976;7.594;2023-12-28T02:53:08;100234.81;;;21.90;41.19
20889;BME280;10604;51.976;7.594;2023-12-28T02:55:34;100236.56;;;21.27;41.47
20889;BME280;10604;51.976;7.594;2023-12-28T02:57:59;100243.91;;;21.03;41.81
20889;BME280;10604;51.976;7.594;2023-12-28T03:00:24;100227.00;;;21.34;41.48
20889;BME280;10604;51.976;7.594;2023-12-28T03:02:50;100215.34;;;21.24;41.86
20889;BME280;10604;51.976;7.594;2023-12-28T03:05:15;100220.41;;;20.95;42.56
20889;BME280;10604;51.976;7.594;2023-12-28T03:07:40;100213.78;;;21.74;41.05
20889;BME280;10604;51.976;7.594;2023-12-28T03:10:07;100214.31;;;21.36;41.47
20889;BME280;10604;51.976;7.594;2023-12-28T03:12:33;100215.16;;;22.10;40.33
20889;BME280;10604;51.976;7.594;2023-12-28T03:14:58;100205.88;;;21.73;41.36
20889;BME280;10604;51.976;7.594;2023-12-28T03:17:23;100208.69;;;21.39;41.70
20889;BME280;10604;51.976;7.594;2023-12-28T03:19:48;100208.38;;;22.06;40.81
20889;BME280;10604;51.976;7.594;2023-12-28T03:22:14;100208.00;;;21.26;42.21
20889;BME280;10604;51.976;7.594;2023-12-28T03:24:39;100206.63;;;21.64;41.34
20889;BME280;10604;51.976;7.594;2023-12-28T03:27:04;100207.38;;;21.66;41.25
20889;BME280;10604;51.976;7.594;2023-12-28T03:29:30;100205.47;;;21.57;41.50
20889;BME280;10604;51.976;7.594;2023-12-28T03:31:55;100208.63;;;22.03;40.95
20889;BME280;10604;51.976;7.594;2023-12-28T03:34:21;100202.84;;;21.45;41.89
20889;BME280;10604;51.976;7.594;2023-12-28T03:36:47;100193.50;;;20.63;42.95
20889;BME280;10604;51.976;7.594;2023-12-28T03:39:12;100196.00;;;21.41;41.71
20889;BME280;10604;51.976;7.594;2023-12-28T03:41:38;100192.53;;;22.34;40.58
20889;BME280;10604;51.976;7.594;2023-12-28T03:44:03;100207.59;;;21.42;41.76
20889;BME280;10604;51.976;7.594;2023-12-28T03:46:28;100206.00;;;21.92;40.91
20889;BME280;10604;51.976;7.594;2023-12-28T03:48:54;100194.47;;;20.74;42.54
20889;BME280;10604;51.976;7.594;2023-12-28T03:51:19;100190.28;;;22.08;40.81
20889;BME280;10604;51.976;7.594;2023-12-28T03:53:44;100191.91;;;21.26;42.02
20889;BME280;10604;51.976;7.594;2023-12-28T03:56:22;100191.63;;;21.82;41.38
20889;BME280;10604;51.976;7.594;2023-12-28T03:58:48;100188.06;;;21.08;42.54
20889;BME280;10604;51.976;7.594;2023-12-28T04:01:13;100197.16;;;20.51;42.68
20889;BME280;10604;51.976;7.594;2023-12-28T04:03:39;100187.88;;;20.89;42.29
20889;BME280;10604;51.976;7.594;2023-12-28T04:06:04;100199.34;;;22.07;41.28
20889;BME280;10604;51.976;7.594;2023-12-28T04:08:30;100187.75;;;21.33;42.45
20889;BME280;10604;51.976;7.594;2023-12-28T04:10:55;100197.28;;;20.50;43.24
20889;BME280;10604;51.976;7.594;2023-12-28T04:13:20;100200.59;;;21.51;41.86
20889;BME280;10604;51.976;7.594;2023-12-28T04:15:46;100199.34;;;21.55;41.42
20889;BME280;10604;51.976;7.594;2023-12-28T04:18:11;100195.13;;;22.14;40.69
20889;BME280;10604;51.976;7.594;2023-12-28T04:20:36;100191.97;;;21.68;40.96
20889;BME280;10604;51.976;7.594;2023-12-28T04:23:01;100187.41;;;21.27;42.12
20889;BME280;10604;51.976;7.594;2023-12-28T04:25:26;100194.22;;;20.54;42.75
20889;BME280;10604;51.976;7.594;2023-12-28T04:27:52;100191.50;;;22.25;40.94
20889;BME280;10604;51.976;7.594;2023-12-28T04:30:17;100188.91;;;21.93;41.13
20889;BME280;10604;51.976;7.594;2023-12-28T04:32:42;100191.72;;;21.71;40.70
20889;BME280;10604;51.976;7.594;2023-12-28T04:35:07;100190.94;;;21.27;41.67
20889;BME280;10604;51.976;7.594;2023-12-28T04:37:32;100194.38;;;22.33;40.10
20889;BME280;10604;51.976;7.594;2023-12-28T04:39:59;100198.91;;;21.49;41.37
20889;BME280;10604;51.976;7.594;2023-12-28T04:42:24;100215.75;;;21.40;41.54
20889;BME280;10604;51.976;7.594;2023-12-28T04:44:49;100220.06;;;20.66;42.92
20889;BME280;10604;51.976;7.594;2023-12-28T04:47:15;100225.66;;;21.40;42.07
20889;BME280;10604;51.976;7.594;2023-12-28T04:49:40;100218.53;;;21.07;42.56
20889;BME280;10604;51.976;7.594;2023-12-28T04:52:05;100229.16;;;21.52;41.92
20889;BME280;10604;51.976;7.594;2023-12-28T04:54:30;100218.66;;;21.48;41.97
20889;BME280;10604;51.976;7.594;2023-12-28T04:56:57;100223.31;;;21.67;42.36
20889;BME280;10604;51.976;7.594;2023-12-28T04:59:23;100231.34;;;21.46;41.90
20889;BME280;10604;51.976;7.594;2023-12-28T05:01:48;100236.03;;;21.44;42.53
20889;BME280;10604;51.976;7.594;2023-12-28T05:04:13;100231.75;;;20.77;43.11
20889;BME280;10604;51.976;7.594;2023-12-28T05:06:38;100219.00;;;21.23;42.53
20889;BME280;10604;51.976;7.594;2023-12-28T05:09:03;100220.44;;;21.27;42.49
20889;BME280;10604;51.976;7.594;2023-12-28T05:11:29;100217.81;;;21.16;41.80
20889;BME280;10604;51.976;7.594;2023-12-28T05:13:55;100214.16;;;21.49;41.59
20889;BME280;10604;51.976;7.594;2023-12-28T05:16:20;100221.78;;;21.85;40.57
20889;BME280;10604;51.976;7.594;2023-12-28T05:18:45;100217.69;;;22.02;40.78
20889;BME280;10604;51.976;7.594;2023-12-28T05:21:11;100206.41;;;22.08;40.96
20889;BME280;10604;51.976;7.594;2023-12-28T05:23:36;100208.69;;;21.39;42.02
20889;BME280;10604;51.976;7.594;2023-12-28T05:26:02;100211.34;;;21.51;41.21
20889;BME280;10604;51.976;7.594;2023-12-28T05:28:27;100210.38;;;22.35;39.84
20889;BME280;10604;51.976;7.594;2023-12-28T05:30:52;100225.84;;;22.21;40.54
20889;BME280;10604;51.976;7.594;2023-12-28T05:33:17;100223.16;;;21.05;41.35
20889;BME280;10604;51.976;7.594;2023-12-28T05:35:42;100235.38;;;20.98;41.92
20889;BME280;10604;51.976;7.594;2023-12-28T05:38:08;100235.59;;;21.81;40.79
20889;BME280;10604;51.976;7.594;2023-12-28T05:40:33;100236.16;;;22.16;39.89
20889;BME280;10604;51.976;7.594;2023-12-28T05:42:58;100238.19;;;21.51;41.03
20889;BME280;10604;51.976;7.594;2023-12-28T05:45:23;100233.72;;;22.13;40.76
20889;BME280;10604;51.976;7.594;2023-12-28T05:47:49;100244.91;;;20.80;42.51
20889;BME280;10604;51.976;7.594;2023-12-28T05:50:15;100241.00;;;21.17;41.58
20889;BME280;10604;51.976;7.594;2023-12-28T05:52:40;100248.44;;;22.40;39.80
20889;BME280;10604;51.976;7.594;2023-12-28T05:55:05;100246.03;;;21.42;41.73
20889;BME280;10604;51.976;7.594;2023-12-28T05:57:30;100243.47;;;21.73;40.56
20889;BME280;10604;51.976;7.594;2023-12-28T05:59:59;100241.09;;;21.59;40.92
20889;BME280;10604;51.976;7.594;2023-12-28T06:02:24;100242.66;;;21.82;40.25
20889;BME280;10604;51.976;7.594;2023-12-28T06:04:49;100245.06;;;21.96;40.18
20889;BME280;10604;51.976;7.594;2023-12-28T06:07:15;100235.81;;;21.14;41.17
20889;BME280;10604;51.976;7.594;2023-12-28T06:09:40;100245.88;;;21.76;40.31
20889;BME280;10604;51.976;7.594;2023-12-28T06:12:05;100250.25;;;21.02;41.23
20889;BME280;10604;51.976;7.594;2023-12-28T06:14:30;100261.88;;;21.45;40.71
20889;BME280;10604;51.976;7.594;2023-12-28T06:16:56;100262.66;;;21.14;41.08
20889;BME280;10604;51.976;7.594;2023-12-28T06:19:21;100271.25;;;22.04;39.94
20889;BME280;10604;51.976;7.594;2023-12-28T06:21:47;100285.81;;;21.37;41.14
20889;BME280;10604;51.976;7.594;2023-12-28T06:24:12;100270.72;;;21.03;41.03
20889;BME280;10604;51.976;7.594;2023-12-28T06:26:41;100279.03;;;22.48;39.26
20889;BME280;10604;51.976;7.594;2023-12-28T06:29:06;100265.09;;;21.06;41.23
20889;BME280;10604;51.976;7.594;2023-12-28T06:31:32;100282.66;;;20.99;40.98
20889;BME280;10604;51.976;7.594;2023-12-28T06:34:01;100266.94;;;21.60;40.56
20889;BME280;10604;51.976;7.594;2023-12-28T06:36:26;100261.41;;;21.93;39.60
20889;BME280;10604;51.976;7.594;2023-12-28T06:38:51;100262.19;;;21.84;40.46
20889;BME280;10604;51.976;7.594;2023-12-28T06:41:17;100276.56;;;21.19;40.41
20889;BME280;10604;51.976;7.594;2023-12-28T06:43:42;100274.34;;;21.35;40.91
20889;BME280;10604;51.976;7.594;2023-12-28T06:46:07;100278.94;;;22.08;39.66
20889;BME280;10604;51.976;7.594;2023-12-28T06:48:32;100281.06;;;22.56;38.52
20889;BME280;10604;51.976;7.594;2023-12-28T06:50:58;100280.63;;;21.57;40.51
20889;BME280;10604;51.976;7.594;2023-12-28T06:53:23;100285.31;;;22.79;38.72
20889;BME280;10604;51.976;7.594;2023-12-28T06:55:48;100282.28;;;21.69;40.05
20889;BME280;10604;51.976;7.594;2023-12-28T06:58:13;100266.09;;;21.16;40.57
20889;BME280;10604;51.976;7.594;2023-12-28T07:00:38;100272.72;;;22.29;39.53
20889;BME280;10604;51.976;7.594;2023-12-28T07:03:04;100270.75;;;22.31;39.22
20889;BME280;10604;51.976;7.594;2023-12-28T07:05:29;100253.63;;;22.32;38.98
20889;BME280;10604;51.976;7.594;2023-12-28T07:07:54;100246.09;;;20.98;40.06
20889;BME280;10604;51.976;7.594;2023-12-28T07:10:19;100256.16;;;22.54;38.53
20889;BME280;10604;51.976;7.594;2023-12-28T07:12:45;100265.03;;;21.51;39.65
20889;BME280;10604;51.976;7.594;2023-12-28T07:15:10;100273.69;;;21.75;40.28
20889;BME280;10604;51.976;7.594;2023-12-28T07:17:39;100259.75;;;22.64;38.81
20889;BME280;10604;51.976;7.594;2023-12-28T07:20:04;100264.88;;;22.46;38.36
20889;BME280;10604;51.976;7.594;2023-12-28T07:22:30;100265.69;;;21.64;39.63
20889;BME280;10604;51.976;7.594;2023-12-28T07:24:55;100272.16;;;21.29;40.84
20889;BME280;10604;51.976;7.594;2023-12-28T07:27:20;100278.47;;;21.39;40.08
20889;BME280;10604;51.976;7.594;2023-12-28T07:29:45;100282.97;;;22.95;38.50
20889;BME280;10604;51.976;7.594;2023-12-28T07:32:10;100292.31;;;21.67;39.48
20889;BME280;10604;51.976;7.594;2023-12-28T07:34:36;100297.75;;;22.08;38.49
20889;BME280;10604;51.976;7.594;2023-12-28T07:37:01;100298.47;;;22.52;39.01
20889;BME280;10604;51.976;7.594;2023-12-28T07:39:26;100301.34;;;23.40;37.08
20889;BME280;10604;51.976;7.594;2023-12-28T07:41:52;100306.56;;;21.67;39.10
20889;BME280;10604;51.976;7.594;2023-12-28T07:44:17;100305.16;;;22.16;38.93
20889;BME280;10604;51.976;7.594;2023-12-28T07:46:42;100315.84;;;21.20;40.05
20889;BME280;10604;51.976;7.594;2023-12-28T07:49:07;100317.44;;;21.66;40.07
20889;BME280;10604;51.976;7.594;2023-12-28T07:51:33;100311.56;;;22.66;38.30
20889;BME280;10604;51.976;7.594;2023-12-28T07:53:58;100303.22;;;21.86;39.57
20889;BME280;10604;51.976;7.594;2023-12-28T07:56:23;100311.78;;;21.80;39.49
20889;BME280;10604;51.976;7.594;2023-12-28T07:58:48;100323.19;;;21.93;39.30
20889;BME280;10604;51.976;7.594;2023-12-28T08:01:15;100315.84;;;22.06;39.41
20889;BME280;10604;51.976;7.594;2023-12-28T08:03:40;100317.63;;;22.38;38.10
20889;BME280;10604;51.976;7.594;2023-12-28T08:06:05;100320.28;;;21.96;38.95
20889;BME280;10604;51.976;7.594;2023-12-28T08:08:31;100329.78;;;21.89;39.01
20889;BME280;10604;51.976;7.594;2023-12-28T08:10:56;100342.72;;;22.48;38.94
20889;BME280;10604;51.976;7.594;2023-12-28T08:13:21;100329.53;;;22.24;38.81
20889;BME280;10604;51.976;7.594;2023-12-28T08:15:47;100335.38;;;22.08;38.72
20889;BME280;10604;51.976;7.594;2023-12-28T08:18:12;100343.13;;;22.22;38.40
20889;BME280;10604;51.976;7.594;2023-12-28T08:20:37;100337.91;;;21.78;39.47
20889;BME280;10604;51.976;7.594;2023-12-28T08:23:03;100336.25;;;21.55;39.70
20889;BME280;10604;51.976;7.594;2023-12-28T08:25:28;100342.53;;;21.76;39.45
20889;BME280;10604;51.976;7.594;2023-12-28T08:27:53;100349.34;;;22.23;38.25
20889;BME280;10604;51.976;7.594;2023-12-28T08:30:18;100343.38;;;22.19;38.84
20889;BME280;10604;51.976;7.594;2023-12-28T08:32:44;100339.16;;;21.63;39.86
20889;BME280;10604;51.976;7.594;2023-12-28T08:35:09;100352.16;;;21.35;39.78
20889;BME280;10604;51.976;7.594;2023-12-28T08:37:34;100351.63;;;21.96;39.79
20889;BME280;10604;51.976;7.594;2023-12-28T08:40:00;100348.03;;;22.59;38.92
20889;BME280;10604;51.976;7.594;2023-12-28T08:42:25;100349.03;;;22.58;38.37
20889;BME280;10604;51.976;7.594;2023-12-28T08:44:50;100341.13;;;22.24;38.92
20889;BME280;10604;51.976;7.594;2023-12-28T08:47:16;100354.25;;;22.39;38.66
20889;BME280;10604;51.976;7.594;2023-12-28T08:49:42;100350.06;;;21.93;39.78
20889;BME280;10604;51.976;7.594;2023-12-28T08:52:07;100351.63;;;21.64;39.76
20889;BME280;10604;51.976;7.594;2023-12-28T08:54:33;100348.28;;;22.77;38.19
20889;BME280;10604;51.976;7.594;2023-12-28T08:56:58;100361.56;;;21.84;38.94
20889;BME280;10604;51.976;7.594;2023-12-28T08:59:23;100358.59;;;22.09;39.46
20889;BME280;10604;51.976;7.594;2023-12-28T09:01:48;100361.63;;;22.78;38.11
20889;BME280;10604;51.976;7.594;2023-12-28T09:04:13;100371.53;;;22.04;38.72
20889;BME280;10604;51.976;7.594;2023-12-28T09:06:39;100372.25;;;22.06;39.54
20889;BME280;10604;51.976;7.594;2023-12-28T09:09:04;100360.19;;;22.01;39.46
20889;BME280;10604;51.976;7.594;2023-12-28T09:11:30;100370.66;;;22.77;38.56
20889;BME280;10604;51.976;7.594;2023-12-28T09:13:56;100372.25;;;22.06;38.86
20889;BME280;10604;51.976;7.594;2023-12-28T09:16:21;100374.28;;;22.87;37.46
20889;BME280;10604;51.976;7.594;2023-12-28T09:18:46;100385.56;;;23.12;37.55
20889;BME280;10604;51.976;7.594;2023-12-28T09:21:12;100375.25;;;22.45;38.15
20889;BME280;10604;51.976;7.594;2023-12-28T09:23:37;100380.84;;;23.04;37.80
20889;BME280;10604;51.976;7.594;2023-12-28T09:26:03;100379.44;;;23.40;36.76
20889;BME280;10604;51.976;7.594;2023-12-28T09:28:29;100370.56;;;21.40;39.55
20889;BME280;10604;51.976;7.594;2023-12-28T09:30:55;100362.75;;;22.02;38.86
20889;BME280;10604;51.976;7.594;2023-12-28T09:33:20;100359.44;;;21.67;39.56
20889;BME280;10604;51.976;7.594;2023-12-28T09:35:46;100355.63;;;22.54;38.09
20889;BME280;10604;51.976;7.594;2023-12-28T09:38:11;100348.97;;;22.99;37.14
20889;BME280;10604;51.976;7.594;2023-12-28T09:40:36;100363.13;;;22.30;38.02
20889;BME280;10604;51.976;7.594;2023-12-28T09:45:32;100368.63;;;23.30;37.47
20889;BME280;10604;51.976;7.594;2023-12-28T09:47:58;100369.47;;;21.97;38.93
20889;BME280;10604;51.976;7.594;2023-12-28T09:50:24;100371.84;;;22.84;37.25
20889;BME280;10604;51.976;7.594;2023-12-28T09:52:51;100376.25;;;23.16;37.20
20889;BME280;10604;51.976;7.594;2023-12-28T09:55:16;100384.84;;;22.79;37.75
20889;BME280;10604;51.976;7.594;2023-12-28T09:57:42;100387.81;;;23.37;37.08
20889;BME280;10604;51.976;7.594;2023-12-28T10:00:08;100382.59;;;22.84;37.51
20889;BME280;10604;51.976;7.594;2023-12-28T10:02:34;100380.31;;;22.80;37.64
20889;BME280;10604;51.976;7.594;2023-12-28T10:05:01;100383.22;;;23.28;36.64
20889;BME280;10604;51.976;7.594;2023-12-28T10:07:26;100391.41;;;24.35;35.74
20889;BME280;10604;51.976;7.594;2023-12-28T10:09:52;100401.53;;;23.34;36.78
20889;BME280;10604;51.976;7.594;2023-12-28T10:12:17;100403.97;;;23.07;36.89
20889;BME280;10604;51.976;7.594;2023-12-28T10:14:42;100390.47;;;22.76;37.77
20889;BME280;10604;51.976;7.594;2023-12-28T10:17:08;100402.63;;;22.39;38.50
20889;BME280;10604;51.976;7.594;2023-12-28T10:19:34;100404.78;;;23.68;36.54
20889;BME280;10604;51.976;7.594;2023-12-28T10:21:59;100389.84;;;23.24;37.08
20889;BME280;10604;51.976;7.594;2023-12-28T10:24:25;100395.41;;;22.18;38.27
20889;BME280;10604;51.976;7.594;2023-12-28T10:26:50;100398.22;;;23.51;37.09
20889;BME280;10604;51.976;7.594;2023-12-28T10:29:15;100389.19;;;23.71;36.63
20889;BME280;10604;51.976;7.594;2023-12-28T10:31:41;100389.97;;;24.41;35.87
20889;BME280;10604;51.976;7.594;2023-12-28T10:34:06;100381.53;;;23.57;36.98
20889;BME280;10604;51.976;7.594;2023-12-28T10:36:32;100400.53;;;23.04;37.38
20889;BME280;10604;51.976;7.594;2023-12-28T10:38:57;100392.28;;;22.96;36.92
20889;BME280;10604;51.976;7.594;2023-12-28T10:41:24;100393.22;;;23.87;36.29
20889;BME280;10604;51.976;7.594;2023-12-28T10:46:19;100395.75;;;22.46;38.00
20889;BME280;10604;51.976;7.594;2023-12-28T10:48:47;100393.63;;;22.81;37.76
20889;BME280;10604;51.976;7.594;2023-12-28T10:51:15;100384.28;;;23.46;36.52
20889;BME280;10604;51.976;7.594;2023-12-28T10:53:52;100395.59;;;23.40;36.36
20889;BME280;10604;51.976;7.594;2023-12-28T10:58:51;100378.28;;;23.33;36.85
20889;BME280;10604;51.976;7.594;2023-12-28T11:01:28;100378.47;;;24.39;35.85
20889;BME280;10604;51.976;7.594;2023-12-28T11:04:04;100375.84;;;24.76;35.07
20889;BME280;10604;51.976;7.594;2023-12-28T11:06:33;100384.28;;;23.46;36.69
20889;BME280;10604;51.976;7.594;2023-12-28T11:08:59;100382.59;;;24.14;35.76
20889;BME280;10604;51.976;7.594;2023-12-28T11:11:26;100378.88;;;22.76;37.32
20889;BME280;10604;51.976;7.594;2023-12-28T11:13:52;100381.72;;;23.04;37.11
20889;BME280;10604;51.976;7.594;2023-12-28T11:16:19;100386.84;;;23.08;37.30
20889;BME280;10604;51.976;7.594;2023-12-28T11:18:45;100367.84;;;22.16;38.15
20889;BME280;10604;51.976;7.594;2023-12-28T11:21:10;100382.19;;;22.26;38.55
20889;BME280;10604;51.976;7.594;2023-12-28T11:23:36;100384.56;;;23.43;36.87
20889;BME280;10604;51.976;7.594;2023-12-28T11:26:01;100376.28;;;23.65;37.19
20889;BME280;10604;51.976;7.594;2023-12-28T11:28:27;100372.69;;;22.43;37.91
20889;BME280;10604;51.976;7.594;2023-12-28T11:30:52;100375.75;;;23.41;36.38
20889;BME280;10604;51.976;7.594;2023-12-28T11:33:17;100361.66;;;22.88;37.05
20889;BME280;10604;51.976;7.594;2023-12-28T11:35:43;100374.91;;;24.00;36.62
20889;BME280;10604;51.976;7.594;2023-12-28T11:38:08;100379.84;;;23.95;36.42
20889;BME280;10604;51.976;7.594;2023-12-28T11:40:40;100378.25;;;22.72;37.62
20889;BME280;10604;51.976;7.594;2023-12-28T11:43:14;100365.41;;;22.55;37.59
20889;BME280;10604;51.976;7.594;2023-12-28T11:45:41;100365.97;;;21.85;38.68
20889;BME280;10604;51.976;7.594;2023-12-28T11:48:14;100366.72;;;22.81;37.66
20889;BME280;10604;51.976;7.594;2023-12-28T11:50:46;100359.41;;;23.63;36.42
20889;BME280;10604;51.976;7.594;2023-12-28T11:53:12;100360.56;;;24.09;35.51
20889;BME280;10604;51.976;7.594;2023-12-28T11:55:37;100354.72;;;23.16;37.27
20889;BME280;10604;51.976;7.594;2023-12-28T11:58:02;100367.63;;;22.29;38.13
20889;BME280;10604;51.976;7.594;2023-12-28T12:00:28;100346.34;;;23.49;36.53
20889;BME280;10604;51.976;7.594;2023-12-28T12:02:53;100358.19;;;22.76;37.99
20889;BME280;10604;51.976;7.594;2023-12-28T12:05:20;100347.22;;;22.89;37.41
20889;BME280;10604;51.976;7.594;2023-12-28T12:07:45;100356.75;;;22.72;37.23
20889;BME280;10604;51.976;7.594;2023-12-28T12:10:20;100351.63;;;22.27;38.05
20889;BME280;10604;51.976;7.594;2023-12-28T12:12:46;100360.97;;;23.26;37.39
20889;BME280;10604;51.976;7.594;2023-12-28T12:15:12;100351.22;;;22.94;37.37
20889;BME280;10604;51.976;7.594;2023-12-28T12:17:38;100348.00;;;23.00;37.25
20889;BME280;10604;51.976;7.594;2023-12-28T12:20:03;100348.34;;;22.86;37.45
20889;BME280;10604;51.976;7.594;2023-12-28T12:22:29;100339.13;;;22.79;37.84
20889;BME280;10604;51.976;7.594;2023-12-28T12:24:54;100339.00;;;23.90;36.22
20889;BME280;10604;51.976;7.594;2023-12-28T12:27:21;100338.63;;;23.35;36.40
20889;BME280;10604;51.976;7.594;2023-12-28T12:29:46;100332.88;;;23.49;36.53
20889;BME280;10604;51.976;7.594;2023-12-28T12:32:11;100331.59;;;23.53;36.27
20889;BME280;10604;51.976;7.594;2023-12-28T12:34:37;100337.03;;;24.11;35.86
20889;BME280;10604;51.976;7.594;2023-12-28T12:37:03;100328.22;;;23.90;36.10
20889;BME280;10604;51.976;7.594;2023-12-28T12:39:29;100333.78;;;23.29;36.34
20889;BME280;10604;51.976;7.594;2023-12-28T12:41:54;100315.72;;;24.46;35.27
20889;BME280;10604;51.976;7.594;2023-12-28T12:44:21;100328.81;;;23.84;35.96
20889;BME280;10604;51.976;7.594;2023-12-28T12:46:47;100321.69;;;24.02;35.70
20889;BME280;10604;51.976;7.594;2023-12-28T12:49:12;100330.09;;;24.84;34.35